Time;durP1;ratioP1;P1;durP2;ratioP2;P2;SDS_P1;SDS_P2;PMS_P1;PMS_P2;Temp;Humidity;BMP_temperature;BMP_pressure;BME280_temperature;BME280_humidity;BME280_pressure;Samples;Min_cycle;Max_cycle;Signal;HPM_P1;HPM_P2
2023/12/21 00:02:07;;;;;;;;;;;;;;;;;;5035298;28;20322;-46
2023/12/21 00:04:33;;;;;;;;;;;;;;;;;;5035296;28;19944;-46
2023/12/21 00:07:00;;;;;;;;;;;;;;;;;;5033768;28;19998;-47
2023/12/21 00:09:26;;;;;;;;;;;;;;;;;;5035140;28;19916;-47
2023/12/21 00:11:52;;;;;;;;;;;;;;;;;;5033982;28;19920;-47
2023/12/21 00:14:18;;;;;;;;;;;;;;;;;;5035037;28;20024;-47
2023/12/21 00:16:44;;;;;;;;;;;;;;;;;;5034800;28;19913;-47
2023/12/21 00:19:10;;;;;;;;;;;;;;;;;;5034912;28;20004;-46
2023/12/21 00:21:36;;;;;;;;;;;;;;;;;;5033666;28;20345;-46
2023/12/21 00:24:03;;;;;;;;;;;;;;;;;;5033656;28;19913;-46
2023/12/21 00:26:29;;;;;;;;;;;;;;;;;;5034570;28;19967;-47
2023/12/21 00:28:55;;;;;;;;;;;;;;;;;;5033891;28;20011;-47
2023/12/21 00:31:21;;;;;;;;;;;;;;;;;;5034545;28;19920;-46
2023/12/21 00:33:47;;;;;;;;;;;;;;;;;;5018471;28;19916;-46
2023/12/21 00:36:13;;;;;;;;;;;;;;;;;;5015658;28;19944;-47
2023/12/21 00:38:39;;;;;;;;;;;;;;;;;;5015962;28;19914;-46
2023/12/21 00:41:05;;;;;;;;;;;;;;;;;;5016224;28;20349;-47
2023/12/21 00:43:31;;;;;;;;;;;;;;;;;;5014524;28;19951;-46
2023/12/21 00:45:57;;;;;;;;;;;;;;;;;;5006393;28;19921;-46
2023/12/21 00:48:23;;;;;;;;;;;;;;;;;;4999739;28;19917;-47
2023/12/21 00:50:49;;;;;;;;;;;;;;;;;;5023393;28;19913;-46
2023/12/21 00:53:16;;;;;;;;;;;;;;;;;;5026388;28;19976;-46
2023/12/21 00:55:42;;;;;;;;;;;;;;;;;;5014291;28;19924;-47
2023/12/21 00:58:08;;;;;;;;;;;;;;;;;;5021308;28;19913;-46
2023/12/21 01:00:34;;;;;;;;;;;;;;;;;;5029643;28;20412;-46
2023/12/21 01:03:00;;;;;;;;;;;;;;;;;;5024899;28;20360;-47
2023/12/21 01:05:26;;;;;;;;;;;;;;;;;;5020840;28;19913;-47
2023/12/21 01:07:52;;;;;;;;;;;;;;;;;;5028562;28;19921;-46
2023/12/21 01:10:18;;;;;;;;;;;;;;;;;;5034052;28;19999;-47
2023/12/21 01:12:44;;;;;;;;;;;;;;;;;;5027179;28;20388;-46
2023/12/21 01:15:10;;;;;;;;;;;;;;;;;;5013363;28;20412;-46
2023/12/21 01:17:36;;;;;;;;;;;;;;;;;;5024419;28;20286;-46
2023/12/21 01:20:03;;;;;;;;;;;;;;;;;;5023864;28;20051;-46
2023/12/21 01:22:29;;;;;;;;;;;;;;;;;;5026885;28;19925;-46
2023/12/21 01:24:55;;;;;;;;;;;;;;;;;;5013740;28;20400;-46
2023/12/21 01:27:21;;;;;;;;;;;;;;;;;;5014823;28;19924;-46
2023/12/21 01:29:47;;;;;;;;;;;;;;;;;;5013757;28;19968;-46
2023/12/21 01:32:13;;;;;;;;;;;;;;;;;;5024607;28;19920;-48
2023/12/21 01:34:39;;;;;;;;;;;;;;;;;;5028197;28;20390;-46
2023/12/21 01:37:05;;;;;;;;;;;;;;;;;;5032821;28;19917;-47
2023/12/21 01:39:31;;;;;;;;;;;;;;;;;;5020381;28;19913;-47
2023/12/21 01:41:57;;;;;;;;;;;;;;;;;;5028157;28;19921;-47
2023/12/21 01:44:24;;;;;;;;;;;;;;;;;;5028506;28;19987;-47
2023/12/21 01:46:50;;;;;;;;;;;;;;;;;;5019056;28;19917;-47
2023/12/21 01:49:16;;;;;;;;;;;;;;;;;;5025190;28;19943;-47
2023/12/21 01:51:42;;;;;;;;;;;;;;;;;;5012189;28;19917;-46
2023/12/21 01:54:08;;;;;;;;;;;;;;;;;;5029044;28;20378;-46
2023/12/21 01:56:34;;;;;;;;;;;;;;;;;;5028122;28;19922;-46
2023/12/21 01:59:00;;;;;;;;;;;;;;;;;;5014452;28;19913;-46
2023/12/21 02:01:26;;;;;;;;;;;;;;;;;;5024212;28;19913;-47
2023/12/21 02:03:52;;;;;;;;;;;;;;;;;;5021735;28;19933;-46
2023/12/21 02:06:18;;;;;;;;;;;;;;;;;;5012991;28;19917;-47
2023/12/21 02:08:44;;;;;;;;;;;;;;;;;;5017955;28;19917;-48
2023/12/21 02:11:10;;;;;;;;;;;;;;;;;;5025017;28;20020;-46
2023/12/21 02:13:36;;;;;;;;;;;;;;;;;;5012936;28;20386;-46
2023/12/21 02:16:02;;;;;;;;;;;;;;;;;;5021536;28;19923;-49
2023/12/21 02:18:28;;;;;;;;;;;;;;;;;;5031464;28;20435;-46
2023/12/21 02:20:56;;;;;;;;;;;;;;;;;;5032117;28;19913;-46
2023/12/21 02:23:22;;;;;;;;;;;;;;;;;;5021891;28;19932;-46
2023/12/21 02:25:48;;;;;;;;;;;;;;;;;;5019580;28;20004;-46
2023/12/21 02:28:14;;;;;;;;;;;;;;;;;;5030563;28;19917;-46
2023/12/21 02:30:40;;;;;;;;;;;;;;;;;;5028598;28;19913;-46
2023/12/21 02:33:06;;;;;;;;;;;;;;;;;;5018450;28;20115;-47
2023/12/21 02:35:32;;;;;;;;;;;;;;;;;;5031890;28;19913;-49
2023/12/21 02:37:58;;;;;;;;;;;;;;;;;;5032108;28;20389;-47
2023/12/21 02:40:24;;;;;;;;;;;;;;;;;;5032357;28;20018;-50
2023/12/21 02:42:50;;;;;;;;;;;;;;;;;;5027186;28;19913;-47
2023/12/21 02:45:16;;;;;;;;;;;;;;;;;;5013527;28;20362;-47
2023/12/21 02:47:42;;;;;;;;;;;;;;;;;;5012496;28;19928;-46
2023/12/21 02:50:08;;;;;;;;;;;;;;;;;;5012563;28;19953;-46
2023/12/21 02:52:35;;;;;;;;;;;;;;;;;;5024293;28;19913;-48
2023/12/21 02:55:01;;;;;;;;;;;;;;;;;;5020305;28;19963;-48
2023/12/21 02:57:27;;;;;;;;;;;;;;;;;;5032253;28;19955;-48
2023/12/21 03:00:02;;;;;;;;;;;;;;;;;;5021038;28;20021;-47
2023/12/21 03:02:28;;;;;;;;;;;;;;;;;;5012874;28;19951;-47
2023/12/21 03:04:54;;;;;;;;;;;;;;;;;;5012675;28;20366;-48
2023/12/21 03:07:20;;;;;;;;;;;;;;;;;;5016251;28;19917;-46
2023/12/21 03:09:46;;;;;;;;;;;;;;;;;;5030651;28;19938;-46
2023/12/21 03:12:12;;;;;;;;;;;;;;;;;;5031777;28;20409;-47
2023/12/21 03:14:38;;;;;;;;;;;;;;;;;;5019326;28;19913;-47
2023/12/21 03:17:04;;;;;;;;;;;;;;;;;;5024500;28;19917;-46
2023/12/21 03:19:31;;;;;;;;;;;;;;;;;;5011154;28;19916;-46
2023/12/21 03:21:57;;;;;;;;;;;;;;;;;;5011788;28;20298;-46
2023/12/21 03:24:23;;;;;;;;;;;;;;;;;;5021634;28;19980;-46
2023/12/21 03:26:49;;;;;;;;;;;;;;;;;;5029490;28;20365;-46
2023/12/21 03:29:16;;;;;;;;;;;;;;;;;;5012467;28;19968;-47
2023/12/21 03:31:42;;;;;;;;;;;;;;;;;;5025108;28;20310;-46
2023/12/21 03:34:08;;;;;;;;;;;;;;;;;;5016259;28;19920;-46
2023/12/21 03:36:34;;;;;;;;;;;;;;;;;;5031082;28;19921;-46
2023/12/21 03:39:00;;;;;;;;;;;;;;;;;;5016068;28;19967;-46
2023/12/21 03:41:26;;;;;;;;;;;;;;;;;;5013660;28;20429;-47
2023/12/21 03:43:52;;;;;;;;;;;;;;;;;;5031320;28;20015;-46
2023/12/21 03:46:18;;;;;;;;;;;;;;;;;;5021292;28;20345;-47
2023/12/21 03:48:44;;;;;;;;;;;;;;;;;;5022404;28;19917;-46
2023/12/21 03:51:10;;;;;;;;;;;;;;;;;;5024709;28;19913;-46
2023/12/21 03:53:36;;;;;;;;;;;;;;;;;;5014609;28;20313;-46
2023/12/21 03:56:02;;;;;;;;;;;;;;;;;;5020796;28;19918;-46
2023/12/21 03:58:28;;;;;;;;;;;;;;;;;;5023770;28;19920;-46
2023/12/21 04:00:54;;;;;;;;;;;;;;;;;;5029941;28;19967;-46
2023/12/21 04:03:21;;;;;;;;;;;;;;;;;;5022950;28;20027;-46
2023/12/21 04:05:47;;;;;;;;;;;;;;;;;;5014238;28;19924;-46
2023/12/21 04:08:13;;;;;;;;;;;;;;;;;;5015423;28;19917;-50
2023/12/21 04:10:39;;;;;;;;;;;;;;;;;;5016429;28;20275;-47
2023/12/21 04:13:05;;;;;;;;;;;;;;;;;;5016702;28;19921;-46
2023/12/21 04:15:31;;;;;;;;;;;;;;;;;;5025807;28;19956;-47
2023/12/21 04:17:57;;;;;;;;;;;;;;;;;;5015247;28;20260;-46
2023/12/21 04:20:23;;;;;;;;;;;;;;;;;;5027935;28;19917;-48
2023/12/21 04:22:49;;;;;;;;;;;;;;;;;;5034945;28;19909;-46
2023/12/21 04:25:15;;;;;;;;;;;;;;;;;;5021780;28;20000;-45
2023/12/21 04:27:41;;;;;;;;;;;;;;;;;;5034725;28;20007;-47
2023/12/21 04:30:07;;;;;;;;;;;;;;;;;;5026355;28;19913;-46
2023/12/21 04:32:33;;;;;;;;;;;;;;;;;;5014930;28;20004;-46
2023/12/21 04:34:59;;;;;;;;;;;;;;;;;;5015792;28;19921;-46
2023/12/21 04:37:25;;;;;;;;;;;;;;;;;;5014083;28;19917;-45
2023/12/21 04:39:51;;;;;;;;;;;;;;;;;;5019090;28;20328;-46
2023/12/21 04:42:17;;;;;;;;;;;;;;;;;;5023503;28;19920;-47
2023/12/21 04:44:44;;;;;;;;;;;;;;;;;;5021721;28;19913;-46
2023/12/21 04:47:10;;;;;;;;;;;;;;;;;;5017019;28;19925;-47
2023/12/21 04:49:36;;;;;;;;;;;;;;;;;;5014647;28;19978;-48
2023/12/21 04:52:03;;;;;;;;;;;;;;;;;;5014575;28;20016;-47
2023/12/21 04:54:30;;;;;;;;;;;;;;;;;;5012770;28;19913;-47
2023/12/21 04:56:56;;;;;;;;;;;;;;;;;;5014362;28;19917;-47
2023/12/21 04:59:22;;;;;;;;;;;;;;;;;;5013183;28;20409;-47
2023/12/21 05:01:48;;;;;;;;;;;;;;;;;;5014386;28;19909;-46
2023/12/21 05:04:14;;;;;;;;;;;;;;;;;;5014409;28;20441;-46
2023/12/21 05:06:40;;;;;;;;;;;;;;;;;;5014178;28;20017;-48
2023/12/21 05:09:06;;;;;;;;;;;;;;;;;;5014465;28;19919;-47
2023/12/21 05:11:32;;;;;;;;;;;;;;;;;;5014459;28;20021;-46
2023/12/21 05:13:58;;;;;;;;;;;;;;;;;;5014211;28;19979;-47
2023/12/21 05:16:24;;;;;;;;;;;;;;;;;;5012226;28;20329;-48
2023/12/21 05:18:51;;;;;;;;;;;;;;;;;;5014115;28;19920;-46
2023/12/21 05:21:17;;;;;;;;;;;;;;;;;;5014107;28;20446;-47
2023/12/21 05:23:43;;;;;;;;;;;;;;;;;;5014076;28;19971;-46
2023/12/21 05:26:09;;;;;;;;;;;;;;;;;;5013813;28;19913;-48
2023/12/21 05:28:35;;;;;;;;;;;;;;;;;;5013861;28;19917;-46
2023/12/21 05:31:01;;;;;;;;;;;;;;;;;;5013875;28;19916;-48
2023/12/21 05:33:27;;;;;;;;;;;;;;;;;;5013908;28;19917;-47
2023/12/21 05:35:53;;;;;;;;;;;;;;;;;;5013537;28;19996;-47
2023/12/21 05:38:20;;;;;;;;;;;;;;;;;;5013805;28;19914;-46
2023/12/21 05:40:46;;;;;;;;;;;;;;;;;;5013583;28;19914;-46
2023/12/21 05:43:12;;;;;;;;;;;;;;;;;;5013603;28;19930;-46
2023/12/21 05:45:38;;;;;;;;;;;;;;;;;;5012097;28;19918;-46
2023/12/21 05:48:04;;;;;;;;;;;;;;;;;;5013495;28;19969;-46
2023/12/21 05:50:30;;;;;;;;;;;;;;;;;;5013676;28;19956;-47
2023/12/21 05:52:56;;;;;;;;;;;;;;;;;;5013526;28;20386;-46
2023/12/21 05:55:22;;;;;;;;;;;;;;;;;;5013135;28;19937;-46
2023/12/21 05:57:49;;;;;;;;;;;;;;;;;;5013841;28;20005;-47
2023/12/21 06:00:15;;;;;;;;;;;;;;;;;;5013332;28;19909;-45
2023/12/21 06:02:41;;;;;;;;;;;;;;;;;;5013637;28;20366;-46
2023/12/21 06:05:07;;;;;;;;;;;;;;;;;;5013102;28;19916;-47
2023/12/21 06:07:33;;;;;;;;;;;;;;;;;;5013105;28;20341;-46
2023/12/21 06:09:59;;;;;;;;;;;;;;;;;;5011868;28;19914;-46
2023/12/21 06:12:25;;;;;;;;;;;;;;;;;;5013152;28;19913;-46
2023/12/21 06:14:51;;;;;;;;;;;;;;;;;;5012924;28;20290;-46
2023/12/21 06:17:17;;;;;;;;;;;;;;;;;;5012980;28;19913;-46
2023/12/21 06:19:43;;;;;;;;;;;;;;;;;;5013098;28;19916;-48
2023/12/21 06:22:09;;;;;;;;;;;;;;;;;;5012968;28;20428;-46
2023/12/21 06:24:35;;;;;;;;;;;;;;;;;;5011500;28;19990;-46
2023/12/21 06:27:02;;;;;;;;;;;;;;;;;;5012033;28;19924;-46
2023/12/21 06:29:28;;;;;;;;;;;;;;;;;;5012909;28;19913;-48
2023/12/21 06:31:54;;;;;;;;;;;;;;;;;;5012885;28;19999;-46
2023/12/21 06:34:21;;;;;;;;;;;;;;;;;;5012879;28;19972;-46
2023/12/21 06:36:47;;;;;;;;;;;;;;;;;;5011199;28;19918;-47
2023/12/21 06:39:13;;;;;;;;;;;;;;;;;;5012667;28;20275;-46
2023/12/21 06:41:39;;;;;;;;;;;;;;;;;;5012687;28;20004;-46
2023/12/21 06:44:05;;;;;;;;;;;;;;;;;;5012577;28;19937;-45
2023/12/21 06:46:31;;;;;;;;;;;;;;;;;;5011169;28;20007;-46
2023/12/21 06:48:57;;;;;;;;;;;;;;;;;;5012568;28;19957;-45
2023/12/21 06:51:23;;;;;;;;;;;;;;;;;;5012562;28;20003;-46
2023/12/21 06:53:49;;;;;;;;;;;;;;;;;;5012482;28;19955;-45
2023/12/21 06:56:17;;;;;;;;;;;;;;;;;;5010928;28;19914;-47
2023/12/21 06:58:43;;;;;;;;;;;;;;;;;;5011243;28;20389;-46
2023/12/21 07:01:10;;;;;;;;;;;;;;;;;;5012478;28;20349;-47
2023/12/21 07:03:36;;;;;;;;;;;;;;;;;;5012454;28;20000;-45
2023/12/21 07:06:02;;;;;;;;;;;;;;;;;;5012088;28;19913;-48
2023/12/21 07:08:28;;;;;;;;;;;;;;;;;;5012211;28;19913;-46
2023/12/21 07:10:54;;;;;;;;;;;;;;;;;;5012302;28;19965;-47
2023/12/21 07:13:20;;;;;;;;;;;;;;;;;;5012330;28;19952;-47
2023/12/21 07:15:46;;;;;;;;;;;;;;;;;;5012210;28;19918;-48
2023/12/21 07:18:12;;;;;;;;;;;;;;;;;;5012329;28;19967;-47
2023/12/21 07:20:38;;;;;;;;;;;;;;;;;;5012360;28;20341;-46
2023/12/21 07:23:05;;;;;;;;;;;;;;;;;;5012197;28;19909;-46
2023/12/21 07:25:31;;;;;;;;;;;;;;;;;;5012093;28;20008;-47
2023/12/21 07:27:57;;;;;;;;;;;;;;;;;;5012150;28;19967;-45
2023/12/21 07:30:23;;;;;;;;;;;;;;;;;;5012185;28;20378;-47
2023/12/21 07:32:49;;;;;;;;;;;;;;;;;;5011135;28;20007;-47
2023/12/21 07:35:15;;;;;;;;;;;;;;;;;;5012224;28;19914;-46
2023/12/21 07:37:42;;;;;;;;;;;;;;;;;;5010984;28;19992;-46
2023/12/21 07:40:08;;;;;;;;;;;;;;;;;;5015510;28;19913;-46
2023/12/21 07:42:34;;;;;;;;;;;;;;;;;;5016053;28;20326;-45
2023/12/21 07:45:00;;;;;;;;;;;;;;;;;;5014574;28;19914;-45
2023/12/21 07:47:26;;;;;;;;;;;;;;;;;;5015841;28;19917;-47
2023/12/21 07:49:52;;;;;;;;;;;;;;;;;;5014775;28;20297;-50
2023/12/21 07:52:18;;;;;;;;;;;;;;;;;;4998204;28;19921;-47
2023/12/21 07:54:44;;;;;;;;;;;;;;;;;;5015498;28;20477;-46
2023/12/21 07:57:12;;;;;;;;;;;;;;;;;;5015642;28;20017;-48
2023/12/21 07:59:38;;;;;;;;;;;;;;;;;;5014513;28;19960;-50
2023/12/21 08:02:04;;;;;;;;;;;;;;;;;;5015700;28;19909;-48
2023/12/21 08:04:31;;;;;;;;;;;;;;;;;;5015322;28;20011;-49
2023/12/21 08:06:57;;;;;;;;;;;;;;;;;;5013960;28;20405;-46
2023/12/21 08:09:23;;;;;;;;;;;;;;;;;;5015444;28;19917;-47
2023/12/21 08:11:49;;;;;;;;;;;;;;;;;;5015498;28;19963;-46
2023/12/21 08:14:15;;;;;;;;;;;;;;;;;;5015426;28;20370;-46
2023/12/21 08:16:41;;;;;;;;;;;;;;;;;;5015114;28;19916;-48
2023/12/21 08:19:07;;;;;;;;;;;;;;;;;;5015190;28;19920;-46
2023/12/21 08:21:33;;;;;;;;;;;;;;;;;;5015197;28;19914;-46
2023/12/21 08:24:01;;;;;;;;;;;;;;;;;;5015168;28;19960;-47
2023/12/21 08:26:27;;;;;;;;;;;;;;;;;;5014941;28;19910;-48
2023/12/21 08:28:53;;;;;;;;;;;;;;;;;;5013882;28;19921;-46
2023/12/21 08:31:19;;;;;;;;;;;;;;;;;;5014978;28;19910;-46
2023/12/21 08:33:45;;;;;;;;;;;;;;;;;;5014978;28;19948;-46
2023/12/21 08:36:11;;;;;;;;;;;;;;;;;;5014634;28;19948;-47
2023/12/21 08:38:37;;;;;;;;;;;;;;;;;;5014885;28;20037;-46
2023/12/21 08:41:03;;;;;;;;;;;;;;;;;;5014829;28;19913;-47
2023/12/21 08:43:30;;;;;;;;;;;;;;;;;;5014793;28;20413;-46
2023/12/21 08:45:56;;;;;;;;;;;;;;;;;;5014545;28;19909;-47
2023/12/21 08:48:22;;;;;;;;;;;;;;;;;;5014727;28;19921;-47
2023/12/21 08:50:48;;;;;;;;;;;;;;;;;;5013901;28;19909;-46
2023/12/21 08:53:14;;;;;;;;;;;;;;;;;;5014689;28;20003;-46
2023/12/21 08:55:40;;;;;;;;;;;;;;;;;;5014293;28;19909;-48
2023/12/21 08:58:07;;;;;;;;;;;;;;;;;;5013425;28;19913;-46
2023/12/21 09:00:33;;;;;;;;;;;;;;;;;;5014410;28;19910;-46
2023/12/21 09:03:00;;;;;;;;;;;;;;;;;;5014444;28;19913;-46
2023/12/21 09:05:26;;;;;;;;;;;;;;;;;;5014120;28;19960;-46
2023/12/21 09:07:52;;;;;;;;;;;;;;;;;;5014208;28;19918;-50
2023/12/21 09:10:18;;;;;;;;;;;;;;;;;;5014304;28;20005;-46
2023/12/21 09:12:44;;;;;;;;;;;;;;;;;;5014255;28;20000;-46
2023/12/21 09:15:10;;;;;;;;;;;;;;;;;;5014031;28;19988;-47
2023/12/21 09:17:36;;;;;;;;;;;;;;;;;;5014111;28;19913;-48
2023/12/21 09:20:02;;;;;;;;;;;;;;;;;;5013995;28;19955;-46
2023/12/21 09:22:28;;;;;;;;;;;;;;;;;;5012920;28;19917;-45
2023/12/21 09:24:55;;;;;;;;;;;;;;;;;;5014002;28;19918;-47
2023/12/21 09:27:21;;;;;;;;;;;;;;;;;;5014278;28;20262;-47
2023/12/21 09:29:47;;;;;;;;;;;;;;;;;;5013945;28;19963;-47
2023/12/21 09:32:13;;;;;;;;;;;;;;;;;;5013865;28;19917;-47
2023/12/21 09:34:39;;;;;;;;;;;;;;;;;;5013674;28;19921;-46
2023/12/21 09:37:05;;;;;;;;;;;;;;;;;;5012372;28;19972;-46
2023/12/21 09:39:32;;;;;;;;;;;;;;;;;;5013807;28;19909;-47
2023/12/21 09:42:00;;;;;;;;;;;;;;;;;;5013777;28;20008;-48
2023/12/21 09:44:26;;;;;;;;;;;;;;;;;;5013956;28;20346;-46
2023/12/21 09:46:52;;;;;;;;;;;;;;;;;;5007502;28;19927;-46
2023/12/21 09:49:18;;;;;;;;;;;;;;;;;;5002367;28;19916;-47
2023/12/21 09:51:45;;;;;;;;;;;;;;;;;;5001737;28;19914;-44
2023/12/21 09:54:11;;;;;;;;;;;;;;;;;;4995864;28;19909;-47
2023/12/21 09:56:37;;;;;;;;;;;;;;;;;;5001793;28;20267;-46
2023/12/21 09:59:03;;;;;;;;;;;;;;;;;;4996676;28;19960;-46
2023/12/21 10:01:29;;;;;;;;;;;;;;;;;;4993739;28;19968;-46
2023/12/21 10:03:57;;;;;;;;;;;;;;;;;;4993611;28;19910;-46
2023/12/21 10:06:23;;;;;;;;;;;;;;;;;;4993634;28;20378;-47
2023/12/21 10:08:49;;;;;;;;;;;;;;;;;;4993583;28;20371;-46
2023/12/21 10:11:16;;;;;;;;;;;;;;;;;;4993588;28;19914;-46
2023/12/21 10:13:42;;;;;;;;;;;;;;;;;;4993489;28;19916;-46
2023/12/21 10:16:08;;;;;;;;;;;;;;;;;;4993315;28;20275;-48
2023/12/21 10:18:34;;;;;;;;;;;;;;;;;;4993376;28;20375;-47
2023/12/21 10:21:00;;;;;;;;;;;;;;;;;;4993461;28;20328;-47
2023/12/21 10:23:27;;;;;;;;;;;;;;;;;;4992171;28;19957;-47
2023/12/21 10:25:54;;;;;;;;;;;;;;;;;;4993252;28;20013;-47
2023/12/21 10:28:20;;;;;;;;;;;;;;;;;;4975770;28;19918;-45
2023/12/21 10:30:46;;;;;;;;;;;;;;;;;;4993184;28;19961;-47
2023/12/21 10:33:14;;;;;;;;;;;;;;;;;;4993129;28;19913;-46
2023/12/21 10:35:40;;;;;;;;;;;;;;;;;;5020030;23;19918;-50
2023/12/21 10:38:07;;;;;;;;;;;;;;;;;;5032439;28;19909;-47
2023/12/21 10:40:33;;;;;;;;;;;;;;;;;;5032426;28;20444;-47
2023/12/21 10:42:59;;;;;;;;;;;;;;;;;;5031911;28;19979;-47
2023/12/21 10:45:26;;;;;;;;;;;;;;;;;;5025647;28;19920;-47
2023/12/21 10:47:52;;;;;;;;;;;;;;;;;;5013708;28;20083;-52
2023/12/21 10:50:18;;;;;;;;;;;;;;;;;;5011367;28;19948;-51
2023/12/21 10:52:44;;;;;;;;;;;;;;;;;;4994977;28;19953;-50
2023/12/21 10:55:14;;;;;;;;;;;;;;;;;;5012339;28;20432;-52
2023/12/21 10:57:40;;;;;;;;;;;;;;;;;;5012458;28;19914;-48
2023/12/21 11:00:12;;;;;;;;;;;;;;;;;;5012518;28;19917;-48
2023/12/21 11:02:38;;;;;;;;;;;;;;;;;;5012570;28;19913;-49
2023/12/21 11:05:04;;;;;;;;;;;;;;;;;;5012351;28;19913;-49
2023/12/21 11:07:31;;;;;;;;;;;;;;;;;;5012534;28;20266;-48
2023/12/21 11:09:57;;;;;;;;;;;;;;;;;;5012337;28;19909;-49
2023/12/21 11:12:23;;;;;;;;;;;;;;;;;;5008838;28;20012;-54
2023/12/21 11:14:49;;;;;;;;;;;;;;;;;;5005386;28;20394;-49
2023/12/21 11:17:15;;;;;;;;;;;;;;;;;;4997784;28;19925;-50
2023/12/21 11:19:41;;;;;;;;;;;;;;;;;;5008046;28;19953;-48
2023/12/21 11:22:07;;;;;;;;;;;;;;;;;;5017319;28;19913;-47
2023/12/21 11:24:33;;;;;;;;;;;;;;;;;;5015777;28;19988;-48
2023/12/21 11:27:01;;;;;;;;;;;;;;;;;;5017115;28;19913;-50
2023/12/21 11:29:28;;;;;;;;;;;;;;;;;;5017091;28;19909;-48
2023/12/21 11:31:54;;;;;;;;;;;;;;;;;;5005207;28;19922;-48
2023/12/21 11:34:21;;;;;;;;;;;;;;;;;;4997646;28;20366;-47
2023/12/21 11:36:48;;;;;;;;;;;;;;;;;;4996058;28;19917;-50
2023/12/21 11:39:14;;;;;;;;;;;;;;;;;;4997804;28;19917;-48
2023/12/21 11:41:40;;;;;;;;;;;;;;;;;;5001928;28;19918;-48
2023/12/21 11:44:06;;;;;;;;;;;;;;;;;;5004710;28;20440;-52
2023/12/21 11:46:35;;;;;;;;;;;;;;;;;;5013503;28;19913;-48
2023/12/21 11:49:01;;;;;;;;;;;;;;;;;;5015575;28;19944;-48
2023/12/21 11:51:28;;;;;;;;;;;;;;;;;;5016756;28;19921;-48
2023/12/21 11:53:54;;;;;;;;;;;;;;;;;;5012511;28;19928;-49
2023/12/21 11:56:20;;;;;;;;;;;;;;;;;;5015350;28;19924;-51
2023/12/21 11:58:46;;;;;;;;;;;;;;;;;;5010729;28;19913;-48
2023/12/21 12:01:12;;;;;;;;;;;;;;;;;;5004754;28;19917;-49
2023/12/21 12:03:38;;;;;;;;;;;;;;;;;;5013173;28;19925;-50
2023/12/21 12:06:06;;;;;;;;;;;;;;;;;;5012214;28;19918;-50
2023/12/21 12:08:32;;;;;;;;;;;;;;;;;;4997161;28;19914;-50
2023/12/21 12:10:58;;;;;;;;;;;;;;;;;;5004513;28;20687;-48
2023/12/21 12:13:24;;;;;;;;;;;;;;;;;;5015290;28;19916;-49
2023/12/21 12:15:53;;;;;;;;;;;;;;;;;;5004062;28;20400;-48
2023/12/21 12:18:19;;;;;;;;;;;;;;;;;;4997163;28;20451;-49
2023/12/21 12:20:45;;;;;;;;;;;;;;;;;;4996793;28;19921;-49
2023/12/21 12:23:11;;;;;;;;;;;;;;;;;;4997034;28;20052;-50
2023/12/21 12:25:37;;;;;;;;;;;;;;;;;;4997977;28;19922;-50
2023/12/21 12:28:04;;;;;;;;;;;;;;;;;;5004682;28;19924;-51
2023/12/21 12:30:30;;;;;;;;;;;;;;;;;;5013498;28;19920;-51
2023/12/21 12:32:56;;;;;;;;;;;;;;;;;;5013572;28;19909;-48
2023/12/21 12:35:22;;;;;;;;;;;;;;;;;;5005393;28;20329;-48
2023/12/21 12:37:48;;;;;;;;;;;;;;;;;;5007008;28;20020;-48
2023/12/21 12:40:14;;;;;;;;;;;;;;;;;;5013615;28;19921;-51
2023/12/21 12:42:40;;;;;;;;;;;;;;;;;;5010330;28;19963;-49
2023/12/21 12:45:07;;;;;;;;;;;;;;;;;;5012218;28;19918;-50
2023/12/21 12:47:33;;;;;;;;;;;;;;;;;;4999604;28;19924;-48
2023/12/21 12:49:59;;;;;;;;;;;;;;;;;;5012915;28;19918;-48
2023/12/21 12:52:25;;;;;;;;;;;;;;;;;;5011654;28;19971;-48
2023/12/21 12:54:51;;;;;;;;;;;;;;;;;;5011637;28;19996;-48
2023/12/21 12:57:18;;;;;;;;;;;;;;;;;;5005194;28;20000;-50
2023/12/21 12:59:44;;;;;;;;;;;;;;;;;;5013004;28;19924;-48
2023/12/21 13:02:10;;;;;;;;;;;;;;;;;;5011814;28;19909;-52
2023/12/21 13:04:36;;;;;;;;;;;;;;;;;;5012759;28;19917;-49
2023/12/21 13:07:02;;;;;;;;;;;;;;;;;;5011218;28;19941;-50
2023/12/21 13:09:30;;;;;;;;;;;;;;;;;;4994087;28;19918;-48
2023/12/21 13:11:56;;;;;;;;;;;;;;;;;;5005014;28;20016;-51
2023/12/21 13:14:22;;;;;;;;;;;;;;;;;;5010607;28;19925;-51
2023/12/21 13:16:48;;;;;;;;;;;;;;;;;;4997881;28;19917;-50
2023/12/21 13:19:14;;;;;;;;;;;;;;;;;;4993089;28;20398;-50
2023/12/21 13:21:43;;;;;;;;;;;;;;;;;;5003101;28;19921;-51
2023/12/21 13:24:09;;;;;;;;;;;;;;;;;;5009087;28;19968;-54
2023/12/21 13:26:35;;;;;;;;;;;;;;;;;;4996240;28;19917;-48
2023/12/21 13:29:02;;;;;;;;;;;;;;;;;;5011013;28;20340;-50
2023/12/21 13:31:28;;;;;;;;;;;;;;;;;;5000885;28;19949;-48
2023/12/21 13:33:54;;;;;;;;;;;;;;;;;;4993967;28;20330;-48
2023/12/21 13:36:20;;;;;;;;;;;;;;;;;;5000575;28;19967;-49
2023/12/21 13:38:47;;;;;;;;;;;;;;;;;;5012297;28;19917;-50
2023/12/21 13:41:13;;;;;;;;;;;;;;;;;;5010872;28;19914;-51
2023/12/21 13:43:42;;;;;;;;;;;;;;;;;;5012192;28;19921;-50
2023/12/21 13:46:08;;;;;;;;;;;;;;;;;;5002558;28;20077;-50
2023/12/21 13:48:34;;;;;;;;;;;;;;;;;;4991471;28;19929;-48
2023/12/21 13:51:00;;;;;;;;;;;;;;;;;;4993585;28;19910;-50
2023/12/21 13:53:26;;;;;;;;;;;;;;;;;;4992492;28;19948;-48
2023/12/21 13:55:52;;;;;;;;;;;;;;;;;;5004171;28;19909;-48
2023/12/21 13:58:18;;;;;;;;;;;;;;;;;;4994754;28;19968;-48
2023/12/21 14:00:46;;;;;;;;;;;;;;;;;;4997776;28;19924;-49
2023/12/21 14:03:14;;;;;;;;;;;;;;;;;;4992318;28;20314;-48
2023/12/21 14:05:40;;;;;;;;;;;;;;;;;;4993361;28;19917;-51
2023/12/21 14:08:06;;;;;;;;;;;;;;;;;;5003986;28;19925;-48
2023/12/21 14:10:34;;;;;;;;;;;;;;;;;;5007353;28;19918;-49
2023/12/21 14:13:00;;;;;;;;;;;;;;;;;;5011344;28;19913;-53
2023/12/21 14:15:26;;;;;;;;;;;;;;;;;;5009807;28;19924;-49
2023/12/21 14:17:52;;;;;;;;;;;;;;;;;;4997581;28;20390;-48
2023/12/21 14:20:22;;;;;;;;;;;;;;;;;;5007730;28;19925;-50
2023/12/21 14:22:48;;;;;;;;;;;;;;;;;;5008596;28;20078;-48
2023/12/21 14:25:14;;;;;;;;;;;;;;;;;;5003409;28;20385;-48
2023/12/21 14:27:40;;;;;;;;;;;;;;;;;;5004120;28;19917;-50
2023/12/21 14:30:08;;;;;;;;;;;;;;;;;;5006006;28;19913;-49
2023/12/21 14:32:34;;;;;;;;;;;;;;;;;;5012437;28;20297;-49
2023/12/21 14:35:00;;;;;;;;;;;;;;;;;;5005179;28;20363;-49
2023/12/21 14:37:26;;;;;;;;;;;;;;;;;;4994604;28;19945;-49
2023/12/21 14:39:55;;;;;;;;;;;;;;;;;;5007336;28;19914;-49
2023/12/21 14:42:21;;;;;;;;;;;;;;;;;;5011359;28;19914;-49
2023/12/21 14:44:47;;;;;;;;;;;;;;;;;;4993065;28;19916;-48
2023/12/21 14:47:13;;;;;;;;;;;;;;;;;;4992954;28;19940;-49
2023/12/21 14:49:40;;;;;;;;;;;;;;;;;;5008345;28;20019;-49
2023/12/21 14:52:06;;;;;;;;;;;;;;;;;;5008718;28;20428;-49
2023/12/21 14:54:32;;;;;;;;;;;;;;;;;;5008517;28;19913;-50
2023/12/21 14:56:58;;;;;;;;;;;;;;;;;;5001153;28;19940;-50
2023/12/21 14:59:24;;;;;;;;;;;;;;;;;;5012573;28;20020;-52
2023/12/21 15:01:51;;;;;;;;;;;;;;;;;;4996691;28;20005;-49
2023/12/21 15:04:18;;;;;;;;;;;;;;;;;;4991913;28;19917;-49
2023/12/21 15:06:44;;;;;;;;;;;;;;;;;;4992649;28;20114;-51
2023/12/21 15:09:11;;;;;;;;;;;;;;;;;;4992777;28;19985;-52
2023/12/21 15:11:37;;;;;;;;;;;;;;;;;;4992707;28;19914;-51
2023/12/21 15:14:03;;;;;;;;;;;;;;;;;;5006576;28;19916;-49
2023/12/21 15:16:30;;;;;;;;;;;;;;;;;;5012080;28;19914;-50
2023/12/21 15:18:56;;;;;;;;;;;;;;;;;;5012378;28;19916;-50
2023/12/21 15:21:22;;;;;;;;;;;;;;;;;;5012384;28;19918;-50
2023/12/21 15:23:48;;;;;;;;;;;;;;;;;;5011032;28;19909;-49
2023/12/21 15:26:15;;;;;;;;;;;;;;;;;;5011900;28;20329;-51
2023/12/21 15:28:41;;;;;;;;;;;;;;;;;;5012138;28;20512;-52
2023/12/21 15:31:07;;;;;;;;;;;;;;;;;;5012044;28;20044;-51
2023/12/21 15:33:33;;;;;;;;;;;;;;;;;;5011089;28;20425;-49
2023/12/21 15:35:59;;;;;;;;;;;;;;;;;;5010435;28;20004;-52
2023/12/21 15:38:25;;;;;;;;;;;;;;;;;;5012079;28;19960;-52
2023/12/21 15:40:51;;;;;;;;;;;;;;;;;;5011936;28;19940;-49
2023/12/21 15:43:17;;;;;;;;;;;;;;;;;;5011969;28;19963;-51
2023/12/21 15:45:43;;;;;;;;;;;;;;;;;;5011687;28;20302;-52
2023/12/21 15:48:09;;;;;;;;;;;;;;;;;;5011928;28;19920;-51
2023/12/21 15:50:35;;;;;;;;;;;;;;;;;;4995964;28;19913;-50
2023/12/21 15:53:01;;;;;;;;;;;;;;;;;;4991316;28;19918;-48
2023/12/21 15:55:29;;;;;;;;;;;;;;;;;;4992125;28;19921;-51
2023/12/21 15:57:56;;;;;;;;;;;;;;;;;;4991184;28;19932;-51
2023/12/21 16:00:22;;;;;;;;;;;;;;;;;;5000471;28;19933;-49
2023/12/21 16:02:51;;;;;;;;;;;;;;;;;;5014067;28;19913;-50
2023/12/21 16:05:17;;;;;;;;;;;;;;;;;;5005634;28;19921;-53
2023/12/21 16:07:45;;;;;;;;;;;;;;;;;;5011637;28;20329;-53
2023/12/21 16:10:11;;;;;;;;;;;;;;;;;;4980508;28;20212;-54
2023/12/21 16:12:37;;;;;;;;;;;;;;;;;;5014022;28;19910;-50
2023/12/21 16:15:03;;;;;;;;;;;;;;;;;;5012921;28;19936;-49
2023/12/21 16:17:29;;;;;;;;;;;;;;;;;;5015190;28;20205;-48
2023/12/21 16:19:56;;;;;;;;;;;;;;;;;;4998281;28;19949;-48
2023/12/21 16:22:22;;;;;;;;;;;;;;;;;;5012557;28;19918;-49
2023/12/21 16:24:49;;;;;;;;;;;;;;;;;;5013397;28;19917;-49
2023/12/21 16:27:15;;;;;;;;;;;;;;;;;;5013426;28;19983;-48
2023/12/21 16:29:41;;;;;;;;;;;;;;;;;;5003970;28;20303;-48
2023/12/21 16:32:07;;;;;;;;;;;;;;;;;;5010804;28;20362;-51
2023/12/21 16:34:33;;;;;;;;;;;;;;;;;;5007677;28;19937;-48
2023/12/21 16:37:00;;;;;;;;;;;;;;;;;;5036219;23;19929;-48
2023/12/21 16:39:26;;;;;;;;;;;;;;;;;;5031778;28;19921;-49